Time;durP1;ratioP1;P1;durP2;ratioP2;P2;SDS_P1;SDS_P2;PMS_P1;PMS_P2;Temp;Humidity;BMP_temperature;BMP_pressure;BME280_temperature;BME280_humidity;BME280_pressure;Samples;Min_cycle;Max_cycle;Signal;HPM_P1;HPM_P2
2021/12/26 00:00:31;;;;;;;1.52;1.42;;;21.30;37.70;;;;;;5044486;28;43968;-61
2021/12/26 00:02:59;;;;;;;1.30;1.20;;;21.40;37.70;;;;;;5043635;28;43483;-60
2021/12/26 00:05:28;;;;;;;1.40;1.30;;;21.30;37.70;;;;;;5044768;28;43484;-61
2021/12/26 00:07:56;;;;;;;1.17;1.08;;;21.30;37.70;;;;;;5044291;28;44669;-60
2021/12/26 00:10:26;;;;;;;1.30;1.20;;;21.30;37.70;;;;;;5044613;28;43754;-61
2021/12/26 00:12:55;;;;;;;1.60;1.50;;;21.30;37.70;;;;;;5044810;28;43578;-61
2021/12/26 00:15:22;;;;;;;1.70;1.60;;;21.20;37.70;;;;;;5045239;28;43437;-60
2021/12/26 00:17:50;;;;;;;1.65;1.55;;;21.20;37.80;;;;;;5044261;28;45096;-61
2021/12/26 00:20:20;;;;;;;1.40;1.30;;;21.20;37.70;;;;;;5043645;28;43533;-60
2021/12/26 00:22:49;;;;;;;2.00;1.50;;;21.20;37.70;;;;;;5043219;28;43483;-61
2021/12/26 00:25:16;;;;;;;1.50;1.40;;;21.10;38.30;;;;;;5044328;28;43464;-59
2021/12/26 00:27:44;;;;;;;1.50;1.40;;;21.10;37.70;;;;;;5043064;28;44663;-60
2021/12/26 00:30:18;;;;;;;1.50;1.40;;;21.10;37.70;;;;;;5042704;28;43447;-61
2021/12/26 00:32:47;;;;;;;1.35;1.25;;;21.10;37.60;;;;;;5044107;28;43461;-59
2021/12/26 00:35:16;;;;;;;1.48;1.38;;;21.00;37.60;;;;;;5043210;28;43687;-60
2021/12/26 00:37:45;;;;;;;1.50;1.40;;;21.00;37.70;;;;;;5043589;28;43852;-60
2021/12/26 00:40:15;;;;;;;1.48;1.38;;;21.00;37.70;;;;;;5044083;28;43454;-60
2021/12/26 00:42:42;;;;;;;1.42;1.30;;;21.00;37.70;;;;;;5041156;28;43436;-61
2021/12/26 00:45:10;;;;;;;1.42;1.33;;;21.00;37.70;;;;;;5034304;28;43400;-62
2021/12/26 00:47:39;;;;;;;1.33;1.23;;;21.00;37.70;;;;;;5043468;28;44059;-61
2021/12/26 00:50:12;;;;;;;1.30;1.20;;;20.90;37.70;;;;;;5044340;28;43698;-60
2021/12/26 00:52:40;;;;;;;1.30;1.20;;;20.90;37.70;;;;;;5041468;28;43527;-60
2021/12/26 00:55:11;;;;;;;1.45;1.35;;;20.90;37.70;;;;;;5043658;28;43505;-60
2021/12/26 00:57:39;;;;;;;1.80;1.70;;;20.90;37.80;;;;;;5043827;28;44882;-60
2021/12/26 01:00:12;;;;;;;1.27;1.25;;;20.90;37.70;;;;;;5042393;28;43498;-61
2021/12/26 01:02:40;;;;;;;1.35;1.25;;;20.80;37.80;;;;;;5040905;28;43495;-61
2021/12/26 01:05:08;;;;;;;1.60;1.50;;;20.80;37.70;;;;;;5039036;28;43488;-61
2021/12/26 01:08:10;;;;;;;1.70;1.60;;;20.80;37.70;;;;;;5043157;28;43806;-61
2021/12/26 01:10:42;;;;;;;1.40;1.30;;;20.80;37.70;;;;;;5040590;28;44000;-59
2021/12/26 01:13:24;;;;;;;1.60;1.50;;;20.70;37.70;;;;;;5038558;28;43516;-61
2021/12/26 01:15:58;;;;;;;1.48;1.38;;;20.70;37.80;;;;;;5075549;28;43463;-60
2021/12/26 01:18:30;;;;;;;1.50;1.40;;;20.70;37.80;;;;;;5041950;28;43797;-61
2021/12/26 01:21:09;;;;;;;1.60;1.50;;;20.60;37.80;;;;;;5041853;28;43992;-61
2021/12/26 01:23:37;;;;;;;1.50;1.40;;;20.60;37.80;;;;;;5041603;28;44024;-61
2021/12/26 01:26:04;;;;;;;1.50;1.40;;;20.60;37.70;;;;;;5042409;28;43597;-60
2021/12/26 01:28:33;;;;;;;1.20;1.20;;;20.60;37.80;;;;;;5041899;28;44212;-62
2021/12/26 01:31:04;;;;;;;1.50;1.40;;;20.60;37.80;;;;;;5040964;28;43664;-60
2021/12/26 01:33:35;;;;;;;1.50;1.40;;;20.60;37.80;;;;;;5075381;28;43486;-61
2021/12/26 01:36:33;;;;;;;1.55;1.40;;;20.60;37.80;;;;;;5075212;27;43503;-61
2021/12/26 01:39:19;;;;;;;1.30;1.30;;;20.60;37.90;;;;;;5041649;28;44659;-61
2021/12/26 01:42:15;;;;;;;1.65;1.55;;;20.50;37.90;;;;;;5037909;28;44198;-61
2021/12/26 01:44:56;;;;;;;1.23;1.13;;;20.50;37.90;;;;;;5036471;28;43431;-61
2021/12/26 01:47:26;;;;;;;1.30;1.23;;;20.50;37.90;;;;;;5040991;28;43522;-61
2021/12/26 01:49:54;;;;;;;1.38;1.35;;;20.50;38.00;;;;;;5042311;28;45051;-60
2021/12/26 01:52:21;;;;;;;1.52;1.42;;;20.50;38.00;;;;;;5072871;27;43613;-61
2021/12/26 01:55:00;;;;;;;1.25;1.20;;;20.40;37.90;;;;;;5074919;27;43406;-60
2021/12/26 01:57:28;;;;;;;1.52;1.42;;;20.40;38.00;;;;;;5075266;27;43565;-62
2021/12/26 01:59:56;;;;;;;1.50;1.40;;;20.40;38.00;;;;;;5041732;28;44068;-61
2021/12/26 02:02:28;;;;;;;1.30;1.20;;;20.40;38.00;;;;;;5040296;28;43501;-60
2021/12/26 02:04:56;;;;;;;1.50;1.40;;;20.40;38.00;;;;;;5041755;28;43464;-60
2021/12/26 02:07:26;;;;;;;1.20;1.20;;;20.40;38.10;;;;;;5041298;28;43633;-61
2021/12/26 02:09:54;;;;;;;1.50;1.40;;;20.30;38.00;;;;;;5041911;28;44660;-61
2021/12/26 02:12:24;;;;;;;1.37;1.33;;;20.30;38.10;;;;;;5039277;28;43514;-60
2021/12/26 02:14:53;;;;;;;1.45;1.35;;;20.30;38.10;;;;;;5075183;27;43461;-61
2021/12/26 02:17:34;;;;;;;1.35;1.30;;;20.30;38.10;;;;;;5041301;28;43454;-61
2021/12/26 02:20:20;;;;;;;1.38;1.27;;;20.30;38.10;;;;;;5074170;27;44924;-60
2021/12/26 02:22:55;;;;;;;1.23;1.20;;;20.20;38.10;;;;;;5040667;28;43494;-61
2021/12/26 02:27:53;;;;;;;1.27;1.20;;;20.20;38.10;;;;;;5040765;28;44118;-61
2021/12/26 02:30:22;;;;;;;1.38;1.27;;;20.20;38.10;;;;;;5075129;27;44906;-61
2021/12/26 02:32:58;;;;;;;1.40;1.30;;;20.20;38.10;;;;;;5041010;28;43887;-60
2021/12/26 02:35:25;;;;;;;1.27;1.17;;;20.20;38.20;;;;;;5074613;27;43435;-60
2021/12/26 02:37:53;;;;;;;1.02;1.02;;;20.10;38.20;;;;;;5040985;28;43627;-60
2021/12/26 02:40:20;;;;;;;1.50;1.40;;;20.10;38.10;;;;;;5042997;28;43778;-60
2021/12/26 02:42:48;;;;;;;1.13;1.13;;;20.10;38.20;;;;;;5071555;27;43691;-60
2021/12/26 02:45:16;;;;;;;1.50;1.40;;;20.10;38.20;;;;;;5037344;28;43472;-61
2021/12/26 02:47:49;;;;;;;1.40;1.30;;;20.10;38.20;;;;;;5040586;28;43637;-60
2021/12/26 02:50:22;;;;;;;1.13;1.13;;;20.00;38.20;;;;;;5040658;28;45833;-61
2021/12/26 02:52:51;;;;;;;1.00;1.00;;;20.00;38.20;;;;;;5039543;28;43519;-60
2021/12/26 02:55:20;;;;;;;1.20;1.20;;;20.00;38.20;;;;;;5040791;28;43419;-61
2021/12/26 02:57:50;;;;;;;1.63;1.52;;;20.00;38.30;;;;;;5070681;28;43626;-60
2021/12/26 03:00:22;;;;;;;1.50;1.40;;;19.90;38.20;;;;;;5041661;28;44707;-60
2021/12/26 03:02:53;;;;;;;1.38;1.27;;;19.90;38.20;;;;;;5074332;28;43958;-61
2021/12/26 03:05:24;;;;;;;1.40;1.30;;;19.90;38.20;;;;;;5041709;28;43459;-61
2021/12/26 03:07:52;;;;;;;1.17;1.10;;;19.90;38.20;;;;;;5041577;28;43430;-59
2021/12/26 03:10:26;;;;;;;1.20;1.20;;;19.90;38.30;;;;;;5072635;27;44708;-60
2021/12/26 03:13:00;;;;;;;1.45;1.35;;;19.90;38.30;;;;;;5039850;28;43495;-60
2021/12/26 03:15:29;;;;;;;1.60;1.50;;;19.90;38.30;;;;;;5039299;28;43510;-61
2021/12/26 03:17:58;;;;;;;1.30;1.20;;;19.80;38.90;;;;;;5040358;28;43487;-61
2021/12/26 03:20:31;;;;;;;1.40;1.30;;;19.80;38.30;;;;;;5040489;28;44748;-60
2021/12/26 03:23:00;;;;;;;1.10;1.10;;;19.80;38.30;;;;;;5040462;28;43950;-60
2021/12/26 03:25:34;;;;;;;1.50;1.13;;;19.80;38.30;;;;;;5074429;27;43445;-60
2021/12/26 03:28:03;;;;;;;;;;;19.70;38.30;;;;;;5041975;28;43550;-60
2021/12/26 03:30:32;;;;;;;1.45;1.35;;;19.70;38.30;;;;;;5040230;28;44029;-60
2021/12/26 03:33:02;;;;;;;1.10;1.10;;;19.70;38.40;;;;;;5040311;28;43511;-60
2021/12/26 03:35:30;;;;;;;1.40;1.30;;;19.70;38.40;;;;;;5040811;28;43567;-60
2021/12/26 03:37:59;;;;;;;1.15;1.10;;;19.70;38.30;;;;;;5039296;28;43674;-60
2021/12/26 03:40:46;;;;;;;1.33;1.23;;;19.70;38.30;;;;;;5040612;28;45046;-60
2021/12/26 03:43:14;;;;;;;1.20;1.10;;;19.70;38.40;;;;;;5040365;28;43989;-60
2021/12/26 03:45:45;;;;;;;1.00;1.00;;;19.60;38.40;;;;;;5036297;28;43404;-61
2021/12/26 03:48:13;;;;;;;1.27;1.17;;;19.60;38.30;;;;;;5037078;28;43523;-60
2021/12/26 03:50:41;;;;;;;1.50;1.40;;;19.60;38.40;;;;;;5040551;28;44723;-61
2021/12/26 03:53:09;;;;;;;1.30;1.20;;;19.60;38.30;;;;;;5039679;28;43571;-60
2021/12/26 03:55:43;;;;;;;1.23;1.13;;;19.60;38.40;;;;;;5039070;28;43572;-61
2021/12/26 03:58:12;;;;;;;0.90;0.90;;;19.50;38.30;;;;;;5039384;28;43575;-61
2021/12/26 04:00:41;;;;;;;1.55;1.30;;;19.50;38.40;;;;;;5039123;28;44912;-60
2021/12/26 04:03:09;;;;;;;1.17;1.17;;;19.50;38.40;;;;;;5038613;28;43513;-60
2021/12/26 04:05:46;;;;;;;1.33;1.23;;;19.50;38.40;;;;;;5034820;28;43852;-61
2021/12/26 04:08:14;;;;;;;1.55;1.45;;;19.50;39.00;;;;;;5039106;28;43490;-60
2021/12/26 04:10:42;;;;;;;1.40;1.40;;;19.50;38.40;;;;;;5036977;28;45107;-61
2021/12/26 04:13:09;;;;;;;1.63;1.52;;;19.50;38.30;;;;;;5039968;28;43507;-60
2021/12/26 04:15:37;;;;;;;1.25;1.25;;;19.40;38.50;;;;;;5039073;28;43491;-60
2021/12/26 04:18:05;;;;;;;1.20;1.10;;;19.40;38.30;;;;;;5039090;28;43643;-60
2021/12/26 04:20:33;;;;;;;1.50;1.40;;;19.40;38.40;;;;;;5038674;28;43917;-60
2021/12/26 04:23:02;;;;;;;1.20;1.10;;;19.40;38.40;;;;;;5038934;28;43914;-60
2021/12/26 04:25:30;;;;;;;1.35;1.25;;;19.40;38.40;;;;;;5072768;28;43482;-61
2021/12/26 04:27:58;;;;;;;1.15;1.15;;;19.30;38.30;;;;;;5055500;28;43551;-60
2021/12/26 04:30:26;;;;;;;1.40;1.30;;;19.30;38.40;;;;;;5042076;28;44035;-60
2021/12/26 04:32:54;;;;;;;1.40;1.30;;;19.30;38.40;;;;;;5042278;28;43507;-60
2021/12/26 04:35:22;;;;;;;1.10;1.10;;;19.30;38.40;;;;;;5042132;28;43558;-61
2021/12/26 04:37:50;;;;;;;1.40;1.30;;;19.30;38.40;;;;;;5042129;28;43507;-60
2021/12/26 04:40:18;;;;;;;1.20;1.20;;;19.30;38.40;;;;;;5042311;28;43869;-59
2021/12/26 04:43:04;;;;;;;1.20;1.10;;;19.30;38.40;;;;;;5043680;28;43517;-60
2021/12/26 04:45:45;;;;;;;1.30;1.20;;;19.20;38.40;;;;;;5039313;28;43443;-59
2021/12/26 04:48:43;;;;;;;1.30;1.20;;;19.20;38.40;;;;;;5008352;28;43610;-61
2021/12/26 04:51:12;;;;;;;1.40;1.30;;;19.20;38.40;;;;;;5041955;28;44053;-61
2021/12/26 04:53:42;;;;;;;1.37;1.27;;;19.20;38.40;;;;;;5042041;28;43487;-60
2021/12/26 04:56:11;;;;;;;1.20;1.20;;;19.20;38.40;;;;;;5074995;27;43521;-60
2021/12/26 04:58:39;;;;;;;1.27;1.17;;;19.20;38.40;;;;;;5074869;27;43522;-60
2021/12/26 05:01:06;;;;;;;1.48;1.33;;;19.10;38.40;;;;;;5043000;28;44696;-61
2021/12/26 05:03:34;;;;;;;1.35;1.25;;;19.10;38.40;;;;;;5041559;28;43480;-60
2021/12/26 05:06:02;;;;;;;1.42;1.40;;;19.10;38.50;;;;;;5042706;28;43501;-61
2021/12/26 05:08:29;;;;;;;1.25;1.15;;;19.10;38.50;;;;;;5042340;28;43513;-61
2021/12/26 05:10:57;;;;;;;1.10;1.10;;;19.00;38.50;;;;;;5042514;28;44925;-60
2021/12/26 05:13:24;;;;;;;1.33;1.15;;;19.00;38.50;;;;;;5075091;27;43482;-60
2021/12/26 05:15:52;;;;;;;1.30;1.20;;;19.00;38.50;;;;;;5041120;28;43470;-61
2021/12/26 05:18:20;;;;;;;1.17;1.17;;;19.00;38.50;;;;;;5042562;28;43502;-60
2021/12/26 05:20:52;;;;;;;1.17;1.10;;;19.10;38.40;;;;;;5041353;28;43803;-61
2021/12/26 05:23:20;;;;;;;1.65;1.52;;;19.10;38.30;;;;;;5042847;28;43949;-59
2021/12/26 05:25:49;;;;;;;1.38;1.27;;;19.10;38.20;;;;;;5040788;28;43470;-61
2021/12/26 05:28:17;;;;;;;1.30;1.20;;;19.10;38.10;;;;;;5041395;28;44110;-60
2021/12/26 05:30:47;;;;;;;1.30;1.20;;;19.20;38.10;;;;;;5041746;28;45859;-61
2021/12/26 05:33:24;;;;;;;1.20;1.20;;;19.20;38.00;;;;;;5076318;27;43569;-60
2021/12/26 05:35:59;;;;;;;1.17;1.17;;;19.20;38.00;;;;;;5074992;27;43476;-60
2021/12/26 05:38:28;;;;;;;1.17;1.17;;;19.20;38.00;;;;;;5074084;28;43584;-61
2021/12/26 05:40:56;;;;;;;1.33;1.20;;;19.20;38.00;;;;;;5040250;28;44695;-61
2021/12/26 05:43:23;;;;;;;1.27;1.23;;;19.10;38.00;;;;;;5041165;28;43495;-60
2021/12/26 05:45:52;;;;;;;1.40;1.30;;;19.10;38.00;;;;;;5074345;28;43562;-61
2021/12/26 05:48:22;;;;;;;1.50;1.40;;;19.10;38.00;;;;;;5034314;28;43456;-61
2021/12/26 05:50:52;;;;;;;1.33;1.25;;;19.10;38.00;;;;;;5034706;28;44340;-61
2021/12/26 05:53:42;;;;;;;0.98;0.98;;;19.10;38.00;;;;;;5001030;28;43880;-60
2021/12/26 05:56:10;;;;;;;1.30;1.20;;;19.10;38.00;;;;;;5040486;28;44167;-60
2021/12/26 05:58:38;;;;;;;1.33;1.23;;;19.10;37.90;;;;;;5024149;28;43713;-60
2021/12/26 06:01:05;;;;;;;1.30;1.20;;;19.10;38.00;;;;;;5057298;28;44976;-60
2021/12/26 06:03:35;;;;;;;1.30;1.20;;;19.10;37.80;;;;;;5073674;28;43513;-60
2021/12/26 06:06:03;;;;;;;1.20;1.10;;;19.10;37.90;;;;;;5074253;28;43534;-59
2021/12/26 06:08:37;;;;;;;1.30;1.20;;;19.10;37.90;;;;;;5040352;28;43613;-60
2021/12/26 06:11:05;;;;;;;1.38;1.27;;;19.10;37.90;;;;;;5040212;28;44109;-61
2021/12/26 06:13:33;;;;;;;1.10;1.10;;;19.10;37.80;;;;;;5041963;28;43754;-61
2021/12/26 06:16:01;;;;;;;1.20;1.10;;;19.10;37.90;;;;;;5040299;28;43468;-60
2021/12/26 06:18:29;;;;;;;1.10;1.10;;;19.00;37.80;;;;;;5040290;28;44065;-61
2021/12/26 06:21:14;;;;;;;1.33;1.23;;;19.00;37.80;;;;;;5038078;28;44750;-60
2021/12/26 06:23:50;;;;;;;1.33;1.30;;;19.00;37.90;;;;;;5042168;28;43657;-60
2021/12/26 06:26:30;;;;;;;1.50;1.40;;;19.00;37.90;;;;;;5041342;28;43538;-61
2021/12/26 06:29:01;;;;;;;1.15;1.15;;;19.00;37.80;;;;;;5040375;28;43529;-60
2021/12/26 06:31:29;;;;;;;1.30;1.20;;;19.00;37.80;;;;;;5041229;28;44946;-60
2021/12/26 06:34:16;;;;;;;1.20;1.13;;;19.00;37.80;;;;;;5038838;28;43545;-60
2021/12/26 06:37:02;;;;;;;1.10;1.10;;;19.00;37.80;;;;;;5072909;28;43581;-60
2021/12/26 06:39:49;;;;;;;1.08;1.08;;;18.90;37.80;;;;;;5040585;28;43555;-61
2021/12/26 06:42:55;;;;;;;1.20;1.10;;;18.90;37.80;;;;;;4959262;28;44078;-60
2021/12/26 06:45:41;;;;;;;1.40;1.27;;;18.90;37.90;;;;;;4959112;28;43991;-61
2021/12/26 06:48:28;;;;;;;1.20;1.10;;;18.90;37.90;;;;;;5017829;28;43437;-59
2021/12/26 06:50:55;;;;;;;1.42;1.33;;;18.90;37.90;;;;;;5031987;28;43582;-61
2021/12/26 06:53:23;;;;;;;1.58;1.20;;;18.90;37.90;;;;;;5041438;28;44689;-61
2021/12/26 06:55:50;;;;;;;1.30;1.20;;;18.90;37.90;;;;;;5039044;28;43463;-60
2021/12/26 06:58:18;;;;;;;1.25;1.25;;;18.90;37.90;;;;;;5041302;28;43433;-61
2021/12/26 07:00:47;;;;;;;1.40;1.30;;;18.90;37.90;;;;;;5041243;28;43498;-60
2021/12/26 07:03:15;;;;;;;1.33;1.25;;;18.90;37.90;;;;;;5072900;27;43752;-60
2021/12/26 07:05:46;;;;;;;1.30;1.20;;;18.90;37.80;;;;;;5038696;28;43491;-60
2021/12/26 07:08:17;;;;;;;1.10;1.00;;;18.90;37.80;;;;;;5037990;28;43564;-61
2021/12/26 07:10:53;;;;;;;1.23;1.10;;;18.90;37.80;;;;;;5039193;28;43954;-61
2021/12/26 07:13:21;;;;;;;1.25;1.15;;;18.90;37.80;;;;;;5039829;28;44942;-60
2021/12/26 07:15:50;;;;;;;0.80;0.80;;;18.90;37.90;;;;;;5040758;28;43487;-60
2021/12/26 07:18:18;;;;;;;1.10;1.00;;;18.90;38.50;;;;;;5039163;28;43982;-60
2021/12/26 07:20:48;;;;;;;1.50;1.40;;;18.90;37.80;;;;;;5039843;28;43441;-60
2021/12/26 07:23:34;;;;;;;1.30;1.20;;;18.90;37.80;;;;;;5039437;28;44692;-60
2021/12/26 07:26:07;;;;;;;1.17;1.10;;;18.80;37.90;;;;;;5039394;28;43554;-60
2021/12/26 07:28:35;;;;;;;1.40;1.30;;;18.90;37.90;;;;;;5039113;28;43530;-60
2021/12/26 07:31:06;;;;;;;1.37;1.27;;;18.90;37.80;;;;;;5040097;28;43422;-61
2021/12/26 07:33:36;;;;;;;1.20;1.20;;;18.90;37.80;;;;;;5072760;28;44684;-61
2021/12/26 07:36:05;;;;;;;1.60;1.10;;;18.90;37.80;;;;;;5038484;28;43452;-61
2021/12/26 07:38:54;;;;;;;1.25;1.15;;;18.90;37.80;;;;;;5039403;28;43485;-60
2021/12/26 07:41:30;;;;;;;1.38;1.20;;;18.90;37.80;;;;;;5038931;28;43620;-60
2021/12/26 07:44:00;;;;;;;1.40;1.30;;;18.90;37.80;;;;;;5039554;28;43795;-60
2021/12/26 07:46:46;;;;;;;1.52;1.42;;;18.90;37.70;;;;;;5037125;28;43495;-61
2021/12/26 07:49:20;;;;;;;1.05;1.02;;;18.90;37.70;;;;;;5037387;28;43541;-60
2021/12/26 07:52:15;;;;;;;1.33;1.10;;;18.90;37.70;;;;;;5030951;28;43506;-61
2021/12/26 07:55:03;;;;;;;1.30;1.20;;;18.90;37.70;;;;;;5066685;27;44046;-61
2021/12/26 07:57:50;;;;;;;1.10;1.00;;;18.90;37.70;;;;;;5037404;28;43543;-61
2021/12/26 08:00:47;;;;;;;1.33;1.15;;;18.90;37.70;;;;;;4984055;28;43640;-60
2021/12/26 08:03:34;;;;;;;1.42;1.30;;;18.90;37.80;;;;;;5041406;28;43485;-61
2021/12/26 08:06:20;;;;;;;1.02;1.00;;;18.80;37.80;;;;;;5043874;28;43835;-60
2021/12/26 08:08:53;;;;;;;0.93;0.93;;;18.80;37.90;;;;;;5042206;28;43539;-61
2021/12/26 08:11:21;;;;;;;1.20;1.10;;;18.90;38.00;;;;;;5059833;27;43423;-60
2021/12/26 08:13:50;;;;;;;1.30;1.20;;;18.90;37.90;;;;;;5044872;28;43561;-60
2021/12/26 08:16:18;;;;;;;1.10;1.10;;;18.90;37.80;;;;;;5043618;28;44027;-61
2021/12/26 08:18:46;;;;;;;1.80;1.10;;;19.00;37.80;;;;;;5043708;28;44067;-60
2021/12/26 08:21:13;;;;;;;1.00;1.00;;;19.00;37.90;;;;;;5043793;28;43568;-61
2021/12/26 08:23:41;;;;;;;0.90;0.90;;;19.00;37.80;;;;;;5076516;28;43542;-61
2021/12/26 08:26:09;;;;;;;1.05;1.05;;;19.00;37.80;;;;;;5043293;28;43734;-60
2021/12/26 08:28:37;;;;;;;0.80;0.80;;;19.00;37.80;;;;;;5043736;28;43844;-60
2021/12/26 08:31:05;;;;;;;1.00;1.00;;;19.10;37.80;;;;;;5042313;28;43508;-60
2021/12/26 08:33:32;;;;;;;1.15;1.05;;;19.10;37.70;;;;;;5043964;28;43471;-61
2021/12/26 08:36:00;;;;;;;1.20;1.10;;;19.10;37.80;;;;;;5043505;28;43806;-60
2021/12/26 08:38:27;;;;;;;1.15;1.05;;;19.10;37.70;;;;;;5043125;28;43707;-61
2021/12/26 08:40:56;;;;;;;1.25;1.15;;;19.10;37.70;;;;;;5041752;28;43457;-60
2021/12/26 08:43:24;;;;;;;1.20;1.10;;;19.10;37.70;;;;;;5041267;28;43464;-60
2021/12/26 08:45:52;;;;;;;1.40;1.30;;;19.10;37.70;;;;;;5043090;28;43782;-60
2021/12/26 08:48:20;;;;;;;0.90;0.90;;;19.10;37.70;;;;;;5043308;28;43481;-60
2021/12/26 08:50:48;;;;;;;1.35;1.25;;;19.10;37.70;;;;;;5042491;28;43528;-60
2021/12/26 08:53:15;;;;;;;1.27;1.20;;;19.20;37.70;;;;;;5038564;28;43448;-61
2021/12/26 08:55:43;;;;;;;1.10;1.00;;;19.10;37.70;;;;;;5041808;28;44808;-60
2021/12/26 08:58:11;;;;;;;1.20;1.10;;;19.20;37.70;;;;;;5042919;28;44012;-61
2021/12/26 09:00:38;;;;;;;0.95;0.95;;;19.10;37.80;;;;;;5043368;28;43563;-60
2021/12/26 09:03:06;;;;;;;1.42;1.33;;;19.20;37.80;;;;;;5043144;28;43570;-61
2021/12/26 09:05:33;;;;;;;4.00;2.30;;;19.20;37.90;;;;;;5042937;28;44161;-60
2021/12/26 09:08:06;;;;;;;4.47;1.90;;;19.10;37.90;;;;;;5041716;28;43514;-60
2021/12/26 09:10:34;;;;;;;3.92;1.98;;;19.20;38.00;;;;;;5041994;28;43496;-61
2021/12/26 09:13:02;;;;;;;3.03;1.52;;;19.10;37.90;;;;;;5043580;28;43494;-61
2021/12/26 09:15:29;;;;;;;3.47;1.30;;;19.20;38.00;;;;;;5042188;28;44093;-61
2021/12/26 09:17:57;;;;;;;2.03;1.23;;;19.30;38.00;;;;;;5042216;28;43467;-61
2021/12/26 09:20:24;;;;;;;3.28;1.60;;;19.30;37.80;;;;;;5043228;28;43505;-61
2021/12/26 09:22:52;;;;;;;1.67;1.23;;;19.40;37.80;;;;;;5042453;28;43490;-61
2021/12/26 09:25:20;;;;;;;1.42;1.33;;;19.50;37.70;;;;;;5042744;28;43793;-59
2021/12/26 09:27:47;;;;;;;1.38;1.23;;;19.60;37.60;;;;;;5042333;28;43431;-61
2021/12/26 09:30:15;;;;;;;1.48;1.17;;;19.60;37.50;;;;;;5040279;28;43486;-60
2021/12/26 09:32:45;;;;;;;2.05;1.40;;;19.80;37.40;;;;;;5042513;28;43572;-61
2021/12/26 09:35:15;;;;;;;1.35;1.10;;;19.80;37.20;;;;;;5043291;28;44685;-62
2021/12/26 09:37:44;;;;;;;2.03;1.30;;;19.90;37.20;;;;;;5041929;28;43705;-60
2021/12/26 09:40:14;;;;;;;1.83;1.48;;;20.00;37.00;;;;;;5043666;28;43465;-61
2021/12/26 09:42:45;;;;;;;1.23;1.17;;;20.10;37.00;;;;;;5040217;28;43535;-60
2021/12/26 09:45:14;;;;;;;1.58;1.20;;;20.10;37.00;;;;;;5042237;28;44708;-61
2021/12/26 09:47:43;;;;;;;1.83;1.50;;;20.20;36.80;;;;;;5041840;28;43687;-61
2021/12/26 09:50:13;;;;;;;1.30;1.20;;;20.30;37.00;;;;;;5043291;28;43445;-62
2021/12/26 09:52:47;;;;;;;1.85;1.38;;;20.30;36.50;;;;;;5039185;28;43643;-61
2021/12/26 09:55:15;;;;;;;1.33;1.20;;;20.40;36.20;;;;;;5040162;28;43838;-61
2021/12/26 09:57:43;;;;;;;1.40;1.20;;;20.40;36.20;;;;;;5041754;28;43566;-61
2021/12/26 10:00:39;;;;;;;1.30;1.20;;;20.50;36.20;;;;;;5042556;28;43455;-60
2021/12/26 10:03:18;;;;;;;1.42;1.20;;;20.50;35.70;;;;;;5041993;28;43552;-61
2021/12/26 10:06:10;;;;;;;1.30;1.20;;;20.50;35.70;;;;;;5041654;28;44996;-61
2021/12/26 10:09:03;;;;;;;1.27;1.17;;;20.60;35.70;;;;;;5040299;28;43495;-61
2021/12/26 10:11:37;;;;;;;1.42;1.33;;;20.70;35.60;;;;;;5040099;28;43450;-62
2021/12/26 10:14:10;;;;;;;1.40;1.30;;;20.80;35.60;;;;;;5040485;28;43527;-62
2021/12/26 10:16:41;;;;;;;1.30;1.20;;;20.80;35.50;;;;;;5041141;28;44710;-60
2021/12/26 10:19:09;;;;;;;1.35;1.25;;;20.90;35.40;;;;;;5041192;28;43941;-61
2021/12/26 10:21:48;;;;;;;1.58;1.30;;;20.90;35.60;;;;;;5041001;28;43552;-58
2021/12/26 10:24:27;;;;;;;1.30;1.20;;;21.00;35.80;;;;;;5041107;28;43425;-60
2021/12/26 10:27:11;;;;;;;1.10;1.10;;;21.10;35.90;;;;;;5039747;28;45055;-59
2021/12/26 10:29:47;;;;;;;2.15;1.13;;;21.10;35.80;;;;;;5041634;28;43719;-59
2021/12/26 10:32:21;;;;;;;2.00;1.25;;;21.20;35.90;;;;;;5041297;28;43459;-60
2021/12/26 10:35:06;;;;;;;2.05;1.30;;;21.30;35.90;;;;;;5040982;28;43388;-59
2021/12/26 10:37:42;;;;;;;3.10;1.20;;;21.30;36.10;;;;;;5072881;28;44944;-61
2021/12/26 10:40:15;;;;;;;1.52;1.25;;;21.40;35.70;;;;;;5039728;28;43499;-61
2021/12/26 10:42:50;;;;;;;1.95;1.25;;;21.50;35.90;;;;;;5039740;28;43633;-60
2021/12/26 10:45:29;;;;;;;3.05;1.13;;;21.50;35.80;;;;;;5041500;28;43408;-62
2021/12/26 10:48:03;;;;;;;1.20;1.10;;;21.60;35.70;;;;;;5040505;28;43741;-61
2021/12/26 10:50:32;;;;;;;1.90;1.20;;;21.70;35.70;;;;;;5041297;28;43973;-61
2021/12/26 10:53:02;;;;;;;1.58;1.35;;;21.70;35.60;;;;;;5037975;28;43463;-60
2021/12/26 10:55:34;;;;;;;1.40;1.15;;;21.70;35.40;;;;;;5037518;28;43472;-60
2021/12/26 10:58:07;;;;;;;1.30;1.05;;;21.80;35.60;;;;;;5041058;28;43878;-61
2021/12/26 11:00:39;;;;;;;2.25;1.40;;;21.90;35.50;;;;;;5041097;28;43467;-59
2021/12/26 11:03:21;;;;;;;1.30;1.20;;;21.90;35.30;;;;;;5040546;28;43446;-59
2021/12/26 11:06:01;;;;;;;1.35;1.25;;;22.00;35.60;;;;;;5041212;28;43665;-59
2021/12/26 11:08:35;;;;;;;1.30;1.20;;;22.00;35.30;;;;;;5040353;28;43787;-60
2021/12/26 11:11:20;;;;;;;1.17;1.17;;;22.00;35.20;;;;;;5041224;28;43549;-60
2021/12/26 11:13:49;;;;;;;1.40;1.30;;;22.10;35.00;;;;;;5043066;28;43541;-60
2021/12/26 11:16:17;;;;;;;1.42;1.30;;;22.10;35.30;;;;;;5041472;28;43645;-59
2021/12/26 11:18:54;;;;;;;1.45;1.10;;;22.20;35.30;;;;;;5041038;28;44751;-60
2021/12/26 11:21:22;;;;;;;1.40;1.30;;;22.20;35.20;;;;;;5038381;28;43517;-59
2021/12/26 11:23:49;;;;;;;1.55;1.30;;;22.20;35.20;;;;;;5040645;28;43512;-60
2021/12/26 11:26:19;;;;;;;1.50;1.40;;;22.20;35.10;;;;;;5038670;28;43443;-60
2021/12/26 11:28:52;;;;;;;1.87;1.10;;;22.30;35.40;;;;;;5038487;28;43796;-61
2021/12/26 11:31:22;;;;;;;1.20;1.10;;;22.30;35.20;;;;;;5038056;28;43707;-61
2021/12/26 11:33:56;;;;;;;1.52;1.02;;;22.30;35.40;;;;;;5039182;28;43475;-61
2021/12/26 11:36:25;;;;;;;1.95;1.27;;;22.40;35.20;;;;;;5038316;28;43527;-61
2021/12/26 11:39:22;;;;;;;1.55;1.10;;;22.40;35.30;;;;;;4988366;28;44258;-60
2021/12/26 11:42:32;;;;;;;1.25;1.00;;;22.40;35.30;;;;;;5042319;28;43788;-61
2021/12/26 11:45:49;;;;;;;1.63;1.33;;;22.40;35.10;;;;;;5043985;28;43670;-60
2021/12/26 11:49:08;;;;;;;0.98;0.98;;;22.50;35.10;;;;;;5023262;28;43584;-61
2021/12/26 11:52:45;;;;;;;1.38;1.27;;;22.50;35.10;;;;;;5043052;28;44076;-61
2021/12/26 11:55:55;;;;;;;1.27;1.17;;;22.50;35.10;;;;;;5030418;28;43523;-61
2021/12/26 11:59:12;;;;;;;1.60;1.10;;;22.50;35.10;;;;;;5041992;28;43490;-61
2021/12/26 12:01:44;;;;;;;1.08;1.08;;;22.60;35.10;;;;;;5043249;28;43533;-61
2021/12/26 12:04:17;;;;;;;1.38;1.23;;;22.60;35.10;;;;;;5042950;28;43739;-61
2021/12/26 12:06:47;;;;;;;1.40;1.30;;;22.60;35.00;;;;;;5042870;28;43448;-61
2021/12/26 12:09:40;;;;;;;1.30;1.20;;;22.60;35.10;;;;;;5043290;28;44195;-61
2021/12/26 12:12:11;;;;;;;2.38;1.25;;;22.60;35.00;;;;;;5035641;28;43511;-61
2021/12/26 12:14:52;;;;;;;1.42;1.33;;;22.60;35.00;;;;;;5041938;28;44077;-60
2021/12/26 12:17:26;;;;;;;1.45;1.30;;;22.60;35.10;;;;;;5043259;28;43420;-62
2021/12/26 12:20:20;;;;;;;1.63;1.20;;;22.60;35.00;;;;;;5043600;28;43422;-61
2021/12/26 12:23:09;;;;;;;1.40;1.25;;;22.60;35.10;;;;;;5042169;28;43611;-61
2021/12/26 12:25:52;;;;;;;1.30;1.20;;;22.60;35.10;;;;;;5043578;28;43967;-61
2021/12/26 12:28:43;;;;;;;1.08;0.98;;;22.60;35.10;;;;;;5043118;28;43551;-61
2021/12/26 12:31:11;;;;;;;1.48;1.38;;;22.60;35.10;;;;;;5020584;28;43626;-62
2021/12/26 12:33:39;;;;;;;1.77;1.42;;;22.60;35.20;;;;;;5042396;28;43479;-61
2021/12/26 12:36:12;;;;;;;1.20;1.10;;;22.60;35.20;;;;;;5044490;28;43834;-60
2021/12/26 12:38:50;;;;;;;1.15;1.02;;;22.60;35.10;;;;;;5043343;28;43563;-61
2021/12/26 12:41:44;;;;;;;1.10;0.95;;;22.50;35.10;;;;;;5043497;28;43455;-62
2021/12/26 12:44:32;;;;;;;2.15;1.52;;;22.40;34.90;;;;;;5042429;28;43458;-61
2021/12/26 12:47:01;;;;;;;1.35;1.25;;;22.30;34.80;;;;;;5043656;28;44683;-61
2021/12/26 12:49:45;;;;;;;1.20;1.10;;;22.30;34.80;;;;;;5043641;28;43459;-61
2021/12/26 12:52:36;;;;;;;1.25;1.10;;;22.30;34.90;;;;;;5041483;28;43618;-61
2021/12/26 12:55:05;;;;;;;;;;;22.30;34.80;;;;;;5041871;28;43555;-61
2021/12/26 12:57:37;;;;;;;1.35;1.25;;;22.30;34.80;;;;;;5038372;28;43777;-62
2021/12/26 13:00:26;;;;;;;1.15;1.10;;;22.20;34.80;;;;;;5043726;28;43564;-61
2021/12/26 13:02:57;;;;;;;1.60;1.38;;;22.30;34.90;;;;;;5032504;28;43477;-61
2021/12/26 13:05:33;;;;;;;1.30;1.20;;;22.20;34.90;;;;;;5042822;28;43562;-61
2021/12/26 13:08:10;;;;;;;1.48;1.30;;;22.20;35.00;;;;;;5042502;28;43797;-62
2021/12/26 13:10:38;;;;;;;1.30;1.20;;;22.20;35.00;;;;;;5042281;28;43545;-61
2021/12/26 13:13:15;;;;;;;1.88;1.38;;;22.20;35.10;;;;;;5042624;28;43539;-61
2021/12/26 13:16:02;;;;;;;2.85;1.60;;;22.20;35.00;;;;;;5041503;28;43586;-61
2021/12/26 13:18:33;;;;;;;1.42;1.33;;;22.10;34.60;;;;;;5040824;28;45056;-61
2021/12/26 13:21:19;;;;;;;1.25;1.15;;;22.10;35.10;;;;;;5042698;28;43984;-62
2021/12/26 13:23:47;;;;;;;2.50;1.23;;;22.00;35.20;;;;;;5043286;28;43643;-61